createdAt,value
2022-09-17T00:02:30.232Z,9.09
2022-09-17T00:06:32.502Z,9.08
2022-09-17T00:10:37.999Z,9.04
2022-09-17T00:14:40.704Z,9.02
2022-09-17T00:18:42.066Z,8.96
2022-09-17T00:22:43.445Z,8.96
2022-09-17T00:26:45.016Z,8.90
2022-09-17T00:30:46.681Z,8.86
2022-09-17T00:34:55.916Z,8.85
2022-09-17T00:38:59.210Z,8.81
2022-09-17T00:43:06.962Z,8.72
2022-09-17T00:47:12.645Z,8.68
2022-09-17T00:51:15.626Z,8.68
2022-09-17T00:55:22.977Z,8.69
2022-09-17T00:59:24.828Z,8.62
2022-09-17T01:03:26.671Z,8.58
2022-09-17T01:07:39.049Z,8.50
2022-09-17T01:11:46.621Z,8.45
2022-09-17T01:15:51.488Z,8.46
2022-09-17T01:20:02.157Z,8.45
2022-09-17T01:24:22.331Z,8.48
2022-09-17T01:28:23.900Z,8.45
2022-09-17T01:32:36.814Z,8.42
2022-09-17T01:37:03.141Z,8.38
2022-09-17T01:41:07.638Z,8.31
2022-09-17T01:45:19.735Z,8.23
2022-09-17T01:49:22.581Z,8.15
2022-09-17T01:53:31.993Z,8.09
2022-09-17T01:57:36.846Z,8.02
2022-09-17T02:01:42.011Z,7.99
2022-09-17T02:05:56.592Z,7.95
2022-09-17T02:09:57.991Z,7.91
2022-09-17T02:14:00.320Z,7.88
2022-09-17T02:18:38.130Z,7.87
2022-09-17T02:22:49.316Z,7.91
2022-09-17T02:27:00.720Z,7.86
2022-09-17T02:31:09.130Z,7.79
2022-09-17T02:35:13.893Z,7.77
2022-09-17T02:39:15.209Z,7.78
2022-09-17T02:43:27.041Z,7.76
2022-09-17T02:47:28.304Z,7.82
2022-09-17T02:51:35.322Z,7.92
2022-09-17T02:55:46.222Z,8.06
2022-09-17T02:59:52.927Z,8.21
2022-09-17T03:04:02.044Z,8.31
2022-09-17T03:08:03.466Z,8.40
2022-09-17T03:12:05.950Z,8.46
2022-09-17T03:16:07.692Z,8.43
2022-09-17T03:20:09.421Z,8.45
2022-09-17T03:24:11.677Z,8.42
2022-09-17T03:28:13.111Z,8.42
2022-09-17T03:32:14.489Z,8.45
2022-09-17T03:36:15.934Z,8.47
2022-09-17T03:40:17.380Z,8.48
2022-09-17T03:44:19.470Z,8.53
2022-09-17T03:48:20.863Z,8.57
2022-09-17T03:52:22.186Z,8.62
2022-09-17T03:56:23.658Z,8.65
2022-09-17T04:00:32.138Z,8.66
2022-09-17T04:04:33.474Z,8.59
2022-09-17T04:08:43.050Z,8.58
2022-09-17T04:12:44.475Z,8.55
2022-09-17T04:16:53.557Z,8.56
2022-09-17T04:20:54.973Z,8.54
2022-09-17T04:24:56.347Z,8.55
2022-09-17T04:28:57.681Z,8.63
2022-09-17T04:32:59.077Z,8.62
2022-09-17T04:37:00.395Z,8.62
2022-09-17T04:41:01.893Z,8.69
2022-09-17T04:45:03.358Z,8.70
2022-09-17T04:49:04.631Z,8.76
2022-09-17T04:53:06.093Z,8.81
2022-09-17T04:57:07.526Z,8.81
2022-09-17T05:01:08.902Z,8.81
2022-09-17T05:05:10.321Z,8.79
2022-09-17T05:09:11.739Z,8.78
2022-09-17T05:13:13.067Z,8.81
2022-09-17T05:17:14.521Z,8.80
2022-09-17T05:21:16.417Z,8.85
2022-09-17T05:25:18.973Z,8.83
2022-09-17T05:29:20.445Z,8.90
2022-09-17T05:33:21.899Z,8.94
2022-09-17T05:37:23.164Z,8.96
2022-09-17T05:41:24.658Z,8.90
2022-09-17T05:45:26.028Z,8.94
2022-09-17T05:49:34.243Z,8.97
2022-09-17T05:53:35.566Z,9.00
2022-09-17T05:57:43.249Z,9.04
2022-09-17T06:01:44.982Z,9.08
2022-09-17T06:05:58.144Z,9.14
2022-09-17T06:10:06.081Z,9.19
2022-09-17T06:14:08.541Z,9.31
2022-09-17T06:28:35.775Z,9.58
2022-09-17T06:32:46.171Z,9.93
2022-09-17T06:36:48.891Z,10.28
2022-09-17T06:40:57.177Z,10.64
2022-09-17T06:45:09.333Z,11.03
2022-09-17T06:49:20.219Z,11.50
2022-09-17T06:53:28.559Z,11.78
2022-09-17T06:57:31.864Z,12.18
2022-09-17T07:05:51.414Z,12.83
2022-09-17T07:09:53.704Z,12.64
2022-09-17T07:13:56.394Z,12.94
2022-09-17T07:17:57.723Z,13.21
2022-09-17T07:21:59.237Z,13.13
2022-09-17T07:26:02.251Z,13.01
2022-09-17T07:30:05.760Z,12.88
2022-09-17T07:34:07.024Z,12.79
2022-09-17T07:38:15.673Z,12.88
2022-09-17T07:42:17.148Z,12.86
2022-09-17T07:46:19.678Z,13.19
2022-09-17T07:50:34.128Z,13.67
2022-09-17T07:54:37.247Z,14.25
2022-09-17T07:58:45.152Z,14.70
2022-09-17T08:02:59.333Z,15.01
2022-09-17T08:07:00.741Z,15.39
2022-09-17T08:11:03.179Z,15.55
2022-09-17T08:15:11.617Z,15.61
2022-09-17T08:19:12.956Z,15.26
2022-09-17T08:23:14.340Z,14.94
2022-09-17T08:27:15.733Z,14.91
2022-09-17T08:31:25.147Z,15.14
2022-09-17T08:35:27.968Z,15.00
2022-09-17T08:39:29.603Z,14.88
2022-09-17T08:43:33.461Z,14.82
2022-09-17T08:47:39.060Z,14.85
2022-09-17T08:51:51.537Z,14.81
2022-09-17T08:56:02.593Z,15.00
2022-09-17T09:00:09.861Z,15.46
2022-09-17T09:04:19.984Z,15.78
2022-09-17T09:08:45.525Z,15.80
2022-09-17T09:12:47.125Z,16.02
2022-09-17T09:16:49.548Z,16.43
2022-09-17T09:20:56.196Z,16.16
2022-09-17T09:25:10.932Z,15.65
2022-09-17T09:29:39.799Z,15.10
2022-09-17T09:33:47.597Z,14.96
2022-09-17T09:38:19.757Z,15.19
2022-09-17T09:42:24.833Z,15.42
2022-09-17T09:46:29.041Z,15.55
2022-09-17T09:51:06.257Z,15.56
2022-09-17T09:55:25.867Z,15.54
2022-09-17T09:59:34.237Z,15.37
2022-09-17T10:03:40.108Z,15.34
2022-09-17T10:07:45.320Z,15.21
2022-09-17T10:12:13.273Z,15.07
2022-09-17T10:16:22.043Z,15.05
2022-09-17T10:20:23.871Z,15.20
2022-09-17T10:24:36.396Z,15.55
2022-09-17T10:28:44.088Z,15.75
2022-09-17T10:33:05.295Z,15.90
2022-09-17T10:37:26.618Z,16.35
2022-09-17T10:41:27.874Z,16.57
2022-09-17T10:45:30.799Z,16.63
2022-09-17T10:49:32.043Z,16.18
2022-09-17T10:53:46.264Z,15.61
2022-09-17T10:57:54.734Z,15.50
2022-09-17T11:02:08.362Z,15.55
2022-09-17T11:06:28.537Z,15.75
2022-09-17T11:10:55.472Z,15.66
2022-09-17T11:15:03.359Z,15.50
2022-09-17T11:19:23.573Z,15.73
2022-09-17T11:23:46.724Z,15.85
2022-09-17T11:27:48.158Z,16.20
2022-09-17T11:31:52.754Z,16.36
2022-09-17T11:36:08.349Z,16.12
2022-09-17T11:40:19.322Z,15.79
2022-09-17T11:44:30.211Z,15.60
2022-09-17T11:49:04.088Z,15.89
2022-09-17T11:53:08.457Z,16.43
2022-09-17T11:57:15.173Z,16.92
2022-09-17T12:01:44.356Z,17.30
2022-09-17T12:05:54.388Z,17.32
2022-09-17T12:10:03.320Z,17.03
2022-09-17T12:14:09.728Z,17.01
2022-09-17T12:18:31.253Z,17.20
2022-09-17T12:22:42.404Z,17.71
2022-09-17T12:27:00.685Z,18.16
2022-09-17T12:31:07.114Z,17.64
2022-09-17T12:36:02.481Z,17.35
2022-09-17T12:40:16.393Z,17.13
2022-09-17T12:44:17.639Z,16.86
2022-09-17T12:48:21.997Z,16.66
2022-09-17T12:52:23.249Z,16.61
2022-09-17T12:56:31.303Z,16.65
2022-09-17T13:00:48.901Z,16.81
2022-09-17T13:05:14.777Z,17.09
2022-09-17T13:09:34.469Z,17.16
2022-09-17T13:13:42.005Z,17.53
2022-09-17T13:18:12.775Z,17.74
2022-09-17T13:22:19.141Z,17.81
2022-09-17T13:26:22.104Z,17.72
2022-09-17T13:30:23.441Z,17.79
2022-09-17T13:34:32.225Z,17.89
2022-09-17T13:38:41.893Z,18.12
2022-09-17T13:42:46.488Z,18.23
2022-09-17T13:46:48.359Z,18.08
2022-09-17T13:50:50.204Z,17.96
2022-09-17T13:54:52.502Z,18.04
2022-09-17T13:58:53.939Z,18.13
2022-09-17T14:02:55.340Z,17.95
2022-09-17T14:06:59.518Z,17.81
2022-09-17T14:11:02.185Z,17.84
2022-09-17T14:15:03.775Z,17.77
2022-09-17T14:19:23.943Z,17.69
2022-09-17T14:23:27.575Z,17.48
2022-09-17T14:27:43.362Z,17.29
2022-09-17T14:31:47.383Z,16.90
2022-09-17T14:36:02.426Z,16.60
2022-09-17T14:40:09.908Z,16.46
2022-09-17T14:44:18.129Z,16.21
2022-09-17T14:48:31.006Z,16.17
2022-09-17T14:52:32.920Z,16.07
2022-09-17T14:56:47.332Z,15.94
2022-09-17T15:00:51.752Z,15.77
2022-09-17T15:04:53.378Z,15.51
2022-09-17T15:08:57.301Z,15.46
2022-09-17T15:12:59.407Z,15.40
2022-09-17T15:17:09.541Z,15.34
2022-09-17T15:21:31.193Z,15.58
2022-09-17T15:25:33.476Z,15.78
2022-09-17T15:29:41.477Z,15.75
2022-09-17T15:33:50.343Z,15.71
2022-09-17T15:42:24.221Z,15.35
2022-09-17T15:46:33.596Z,15.27
2022-09-17T15:50:36.225Z,15.06
2022-09-17T15:54:44.550Z,14.93
2022-09-17T15:58:46.002Z,14.79
2022-09-17T16:02:47.542Z,14.58
2022-09-17T16:06:51.525Z,14.17
2022-09-17T16:10:59.833Z,13.86
2022-09-17T16:15:01.565Z,13.61
2022-09-17T16:19:03.795Z,13.51
2022-09-17T16:23:05.146Z,13.35
2022-09-17T16:27:13.489Z,13.24
2022-09-17T16:31:15.166Z,13.88
2022-09-17T16:35:24.424Z,17.48
2022-09-17T16:39:25.713Z,17.99
2022-09-17T16:43:27.126Z,16.22
2022-09-17T16:47:30.581Z,15.13
2022-09-17T16:51:31.870Z,14.35
2022-09-17T16:55:33.386Z,13.80
2022-09-17T16:59:34.649Z,13.37
2022-09-17T17:03:43.473Z,13.04
2022-09-17T17:07:44.763Z,12.80
2022-09-17T17:11:52.453Z,12.57
2022-09-17T17:15:53.960Z,12.37
2022-09-17T17:19:55.865Z,12.23
2022-09-17T17:23:57.209Z,12.09
2022-09-17T17:27:59.189Z,11.93
2022-09-17T17:32:00.623Z,11.88
2022-09-17T17:36:07.610Z,11.86
2022-09-17T17:40:16.720Z,11.84
2022-09-17T17:44:18.085Z,11.78
2022-09-17T17:48:19.384Z,11.80
2022-09-17T17:52:27.506Z,11.69
2022-09-17T17:56:28.829Z,11.62
2022-09-17T18:00:30.172Z,11.64
2022-09-17T18:04:31.409Z,11.59
2022-09-17T18:08:32.781Z,11.61
2022-09-17T18:12:34.509Z,11.63
2022-09-17T18:16:42.602Z,11.67
2022-09-17T18:20:44.053Z,11.68
2022-09-17T18:24:45.436Z,11.66
2022-09-17T18:28:47.651Z,11.63
2022-09-17T18:32:55.529Z,11.64
2022-09-17T18:36:56.936Z,11.64
2022-09-17T18:41:04.815Z,11.64
2022-09-17T18:45:06.683Z,11.65
2022-09-17T18:49:08.381Z,11.63
2022-09-17T18:53:09.697Z,11.55
2022-09-17T18:57:17.505Z,11.43
2022-09-17T19:01:20.504Z,11.33
2022-09-17T19:05:21.835Z,11.25
2022-09-17T19:09:29.686Z,11.17
2022-09-17T19:13:35.313Z,11.05
2022-09-17T19:17:36.618Z,10.96
2022-09-17T19:21:37.893Z,10.86
2022-09-17T19:25:39.415Z,10.80
2022-09-17T19:29:40.693Z,10.78
2022-09-17T19:33:42.208Z,10.74
2022-09-17T19:37:43.550Z,10.73
2022-09-17T19:41:44.957Z,10.73
2022-09-17T19:45:46.229Z,10.71
2022-09-17T19:49:50.818Z,10.71
2022-09-17T19:53:52.632Z,10.64
2022-09-17T19:57:53.923Z,10.58
2022-09-17T20:02:01.590Z,10.48
2022-09-17T20:06:10.520Z,10.37
2022-09-17T20:10:18.607Z,10.27
2022-09-17T20:14:26.539Z,10.17
2022-09-17T20:18:28.320Z,9.99
2022-09-17T20:22:29.782Z,9.96
2022-09-17T20:26:31.430Z,9.96
2022-09-17T20:30:39.626Z,10.01
2022-09-17T20:34:47.588Z,10.03
2022-09-17T20:43:10.595Z,10.07
2022-09-17T20:47:11.887Z,10.05
2022-09-17T20:51:15.909Z,10.02
2022-09-17T20:55:17.995Z,9.94
2022-09-17T20:59:19.624Z,9.83
2022-09-17T21:03:22.977Z,9.72
2022-09-17T21:07:30.537Z,9.67
2022-09-17T21:11:31.849Z,9.64
2022-09-17T21:15:33.345Z,9.58
2022-09-17T21:19:35.150Z,9.48
2022-09-17T21:23:36.972Z,9.42
2022-09-17T21:27:38.460Z,9.29
2022-09-17T21:31:40.066Z,9.25
2022-09-17T21:35:41.567Z,9.23
2022-09-17T21:39:43.063Z,9.19
2022-09-17T21:43:44.573Z,9.09
2022-09-17T21:47:52.775Z,9.08
2022-09-17T21:52:00.665Z,9.12
2022-09-17T21:56:03.691Z,9.18
2022-09-17T22:00:07.628Z,9.27
2022-09-17T22:04:16.532Z,9.24
2022-09-17T22:08:21.102Z,9.19
2022-09-17T22:12:29.522Z,9.20
2022-09-17T22:16:32.884Z,9.21
2022-09-17T22:20:34.747Z,9.23
2022-09-17T22:24:36.086Z,9.28
2022-09-17T22:28:43.708Z,9.33
2022-09-17T22:32:51.626Z,9.37
2022-09-17T22:36:53.041Z,9.41
2022-09-17T22:41:00.822Z,9.50
2022-09-17T22:45:02.376Z,9.48
2022-09-17T22:49:03.644Z,9.51
2022-09-17T22:53:04.945Z,9.57
2022-09-17T22:57:06.521Z,9.60
2022-09-17T23:01:11.213Z,9.65
2022-09-17T23:05:12.568Z,9.72
2022-09-17T23:09:14.169Z,9.71
2022-09-17T23:13:15.920Z,9.76
2022-09-17T23:17:17.349Z,9.80
2022-09-17T23:21:19.354Z,9.79
2022-09-17T23:25:20.741Z,9.80
2022-09-17T23:29:22.198Z,9.82
2022-09-17T23:33:24.022Z,9.86
2022-09-17T23:37:25.359Z,9.93
2022-09-17T23:41:28.133Z,9.96
2022-09-17T23:45:29.486Z,10.02
2022-09-17T23:49:30.961Z,10.06
2022-09-17T23:53:32.990Z,10.11
2022-09-17T23:57:34.402Z,10.12
